X  Close Metar Aviation Weather Data     EBBR Brussels Airport
Temperature
1°C Temperature
-1°C Dewpoint
87% Humidity



Wind
14 KM/H
9 MPH
4 M/S
8 KTS



210°
SSW
Current Conditions

Clear Clear
Pressure 1010.92 (hPa) - 29.85 (inHg)
Visibility 6.2 (mile) - 10 (km)
Airport
Airport-code EBBR

Location: Brussels Airport
Distance: 14 (km)

Metar:
EBBR 030550Z 21008KT CAVOK 01/M01 Q1011 NOSIG

Time: 12-03-2021 06:50 CET